sensor_id;sensor_type;location;lat;lon;timestamp;temperature;humidity
488;DHT22;16586;48.976;9.584;2022-12-16T00:01:50;2.20;54.90
488;DHT22;16586;48.976;9.584;2022-12-16T00:04:17;2.20;55.90
488;DHT22;16586;48.976;9.584;2022-12-16T00:06:44;2.60;55.30
488;DHT22;16586;48.976;9.584;2022-12-16T00:09:12;2.40;55.00
488;DHT22;16586;48.976;9.584;2022-12-16T00:11:39;2.20;55.10
488;DHT22;16586;48.976;9.584;2022-12-16T00:14:06;2.20;54.90
488;DHT22;16586;48.976;9.584;2022-12-16T00:16:32;2.20;55.00
488;DHT22;16586;48.976;9.584;2022-12-16T00:18:59;2.30;55.00
488;DHT22;16586;48.976;9.584;2022-12-16T00:21:26;2.20;54.80
488;DHT22;16586;48.976;9.584;2022-12-16T00:23:54;2.20;54.80
488;DHT22;16586;48.976;9.584;2022-12-16T00:26:22;2.10;54.50
488;DHT22;16586;48.976;9.584;2022-12-16T00:28:49;2.20;54.90
488;DHT22;16586;48.976;9.584;2022-12-16T00:31:16;2.20;54.40
488;DHT22;16586;48.976;9.584;2022-12-16T00:33:43;2.20;54.70
488;DHT22;16586;48.976;9.584;2022-12-16T00:36:10;2.20;54.50
488;DHT22;16586;48.976;9.584;2022-12-16T00:38:37;2.20;54.30
488;DHT22;16586;48.976;9.584;2022-12-16T00:41:04;2.10;54.90
488;DHT22;16586;48.976;9.584;2022-12-16T00:43:32;2.10;55.70
488;DHT22;16586;48.976;9.584;2022-12-16T00:45:59;2.00;56.00
488;DHT22;16586;48.976;9.584;2022-12-16T00:48:25;2.00;55.90
488;DHT22;16586;48.976;9.584;2022-12-16T00:50:53;2.20;56.20
488;DHT22;16586;48.976;9.584;2022-12-16T00:53:20;2.00;56.00
488;DHT22;16586;48.976;9.584;2022-12-16T00:55:47;2.10;56.20
488;DHT22;16586;48.976;9.584;2022-12-16T00:58:14;2.20;55.90
488;DHT22;16586;48.976;9.584;2022-12-16T01:00:42;2.20;56.10
488;DHT22;16586;48.976;9.584;2022-12-16T01:03:09;4.10;58.10
488;DHT22;16586;48.976;9.584;2022-12-16T01:05:37;2.20;56.10
488;DHT22;16586;48.976;9.584;2022-12-16T01:08:04;2.20;55.50
488;DHT22;16586;48.976;9.584;2022-12-16T01:10:31;2.20;56.20
488;DHT22;16586;48.976;9.584;2022-12-16T01:12:58;2.20;56.60
488;DHT22;16586;48.976;9.584;2022-12-16T01:15:24;2.30;56.10
488;DHT22;16586;48.976;9.584;2022-12-16T01:17:52;2.40;56.30
488;DHT22;16586;48.976;9.584;2022-12-16T01:20:19;2.30;56.00
488;DHT22;16586;48.976;9.584;2022-12-16T01:22:46;3.40;57.80
488;DHT22;16586;48.976;9.584;2022-12-16T01:25:13;2.20;55.60
488;DHT22;16586;48.976;9.584;2022-12-16T01:27:40;2.00;56.50
488;DHT22;16586;48.976;9.584;2022-12-16T01:30:07;2.20;56.40
488;DHT22;16586;48.976;9.584;2022-12-16T01:32:35;2.30;56.60
488;DHT22;16586;48.976;9.584;2022-12-16T01:35:04;2.30;57.20
488;DHT22;16586;48.976;9.584;2022-12-16T01:37:31;2.40;57.80
488;DHT22;16586;48.976;9.584;2022-12-16T01:39:59;2.50;56.70
488;DHT22;16586;48.976;9.584;2022-12-16T01:42:26;2.20;56.40
488;DHT22;16586;48.976;9.584;2022-12-16T01:44:55;2.20;56.70
488;DHT22;16586;48.976;9.584;2022-12-16T01:47:25;2.20;56.60
488;DHT22;16586;48.976;9.584;2022-12-16T01:49:56;2.20;56.60
488;DHT22;16586;48.976;9.584;2022-12-16T01:52:28;2.00;56.30
488;DHT22;16586;48.976;9.584;2022-12-16T01:54:58;2.10;57.10
488;DHT22;16586;48.976;9.584;2022-12-16T01:57:29;2.50;57.10
488;DHT22;16586;48.976;9.584;2022-12-16T02:00:00;2.00;56.50
488;DHT22;16586;48.976;9.584;2022-12-16T02:02:28;2.70;57.40
488;DHT22;16586;48.976;9.584;2022-12-16T02:04:54;2.00;56.80
488;DHT22;16586;48.976;9.584;2022-12-16T02:07:40;2.10;56.50
488;DHT22;16586;48.976;9.584;2022-12-16T02:10:07;2.00;57.20
488;DHT22;16586;48.976;9.584;2022-12-16T02:12:41;2.10;57.00
488;DHT22;16586;48.976;9.584;2022-12-16T02:15:22;2.10;56.10
488;DHT22;16586;48.976;9.584;2022-12-16T02:17:55;2.10;56.10
488;DHT22;16586;48.976;9.584;2022-12-16T02:21:03;1.90;56.30
488;DHT22;16586;48.976;9.584;2022-12-16T02:24:00;2.00;56.50
488;DHT22;16586;48.976;9.584;2022-12-16T02:26:52;2.00;57.10
488;DHT22;16586;48.976;9.584;2022-12-16T02:30:05;1.80;56.80
488;DHT22;16586;48.976;9.584;2022-12-16T02:32:42;2.10;57.00
488;DHT22;16586;48.976;9.584;2022-12-16T02:35:17;2.00;56.60
488;DHT22;16586;48.976;9.584;2022-12-16T02:37:50;2.10;57.40
488;DHT22;16586;48.976;9.584;2022-12-16T02:40:23;2.00;56.80
488;DHT22;16586;48.976;9.584;2022-12-16T02:42:56;2.20;56.60
488;DHT22;16586;48.976;9.584;2022-12-16T02:45:28;2.10;56.50
488;DHT22;16586;48.976;9.584;2022-12-16T02:47:56;2.20;56.00
488;DHT22;16586;48.976;9.584;2022-12-16T02:50:26;2.20;56.40
488;DHT22;16586;48.976;9.584;2022-12-16T02:52:54;2.10;55.80
488;DHT22;16586;48.976;9.584;2022-12-16T02:55:28;2.20;55.40
488;DHT22;16586;48.976;9.584;2022-12-16T02:58:09;2.10;55.90
488;DHT22;16586;48.976;9.584;2022-12-16T03:00:48;2.20;55.90
488;DHT22;16586;48.976;9.584;2022-12-16T03:03:23;2.10;55.70
488;DHT22;16586;48.976;9.584;2022-12-16T03:05:53;2.20;55.80
488;DHT22;16586;48.976;9.584;2022-12-16T03:08:25;2.20;55.10
488;DHT22;16586;48.976;9.584;2022-12-16T03:10:55;2.10;54.60
488;DHT22;16586;48.976;9.584;2022-12-16T03:13:25;2.20;55.00
488;DHT22;16586;48.976;9.584;2022-12-16T03:15:54;2.10;55.10
488;DHT22;16586;48.976;9.584;2022-12-16T03:18:24;2.90;55.50
488;DHT22;16586;48.976;9.584;2022-12-16T03:20:54;2.20;54.70
488;DHT22;16586;48.976;9.584;2022-12-16T03:23:26;2.00;54.40
488;DHT22;16586;48.976;9.584;2022-12-16T03:25:56;2.00;54.70
488;DHT22;16586;48.976;9.584;2022-12-16T03:28:31;2.00;55.40
488;DHT22;16586;48.976;9.584;2022-12-16T03:31:06;1.90;55.40
488;DHT22;16586;48.976;9.584;2022-12-16T03:33:38;1.90;56.10
488;DHT22;16586;48.976;9.584;2022-12-16T03:36:09;1.90;56.20
488;DHT22;16586;48.976;9.584;2022-12-16T03:38:37;1.80;55.30
488;DHT22;16586;48.976;9.584;2022-12-16T03:41:06;1.50;55.40
488;DHT22;16586;48.976;9.584;2022-12-16T03:43:33;1.60;56.20
488;DHT22;16586;48.976;9.584;2022-12-16T03:46:04;1.60;56.90
488;DHT22;16586;48.976;9.584;2022-12-16T03:48:31;1.60;56.80
488;DHT22;16586;48.976;9.584;2022-12-16T03:51:00;1.70;56.50
488;DHT22;16586;48.976;9.584;2022-12-16T03:53:26;1.70;57.20
488;DHT22;16586;48.976;9.584;2022-12-16T03:55:54;1.60;56.30
488;DHT22;16586;48.976;9.584;2022-12-16T03:58:21;1.50;56.70
488;DHT22;16586;48.976;9.584;2022-12-16T04:00:47;1.60;57.60
488;DHT22;16586;48.976;9.584;2022-12-16T04:03:15;1.40;57.70
488;DHT22;16586;48.976;9.584;2022-12-16T04:05:41;1.70;58.00
488;DHT22;16586;48.976;9.584;2022-12-16T04:08:09;1.90;57.90
488;DHT22;16586;48.976;9.584;2022-12-16T04:10:36;1.80;57.30
488;DHT22;16586;48.976;9.584;2022-12-16T04:13:32;1.70;56.50
488;DHT22;16586;48.976;9.584;2022-12-16T04:16:16;1.40;56.90
488;DHT22;16586;48.976;9.584;2022-12-16T04:19:01;1.40;57.60
488;DHT22;16586;48.976;9.584;2022-12-16T04:21:45;1.40;57.30
488;DHT22;16586;48.976;9.584;2022-12-16T04:24:31;1.30;57.60
488;DHT22;16586;48.976;9.584;2022-12-16T04:26:58;1.50;57.60
488;DHT22;16586;48.976;9.584;2022-12-16T04:29:42;2.00;58.00
488;DHT22;16586;48.976;9.584;2022-12-16T04:32:23;1.20;57.20
488;DHT22;16586;48.976;9.584;2022-12-16T04:34:50;1.30;58.00
488;DHT22;16586;48.976;9.584;2022-12-16T04:37:16;2.40;59.30
488;DHT22;16586;48.976;9.584;2022-12-16T04:40:02;1.40;58.50
488;DHT22;16586;48.976;9.584;2022-12-16T04:42:47;1.60;58.80
488;DHT22;16586;48.976;9.584;2022-12-16T04:45:46;1.40;58.30
488;DHT22;16586;48.976;9.584;2022-12-16T04:48:30;1.70;58.30
488;DHT22;16586;48.976;9.584;2022-12-16T04:51:14;1.70;58.10
488;DHT22;16586;48.976;9.584;2022-12-16T04:53:59;1.70;58.00
488;DHT22;16586;48.976;9.584;2022-12-16T04:56:44;1.30;57.60
488;DHT22;16586;48.976;9.584;2022-12-16T04:59:30;1.70;57.30
488;DHT22;16586;48.976;9.584;2022-12-16T05:02:14;1.70;57.20
488;DHT22;16586;48.976;9.584;2022-12-16T05:04:59;1.60;57.50
488;DHT22;16586;48.976;9.584;2022-12-16T05:07:43;1.60;57.60
488;DHT22;16586;48.976;9.584;2022-12-16T05:10:27;2.40;58.20
488;DHT22;16586;48.976;9.584;2022-12-16T05:13:12;1.70;57.30
488;DHT22;16586;48.976;9.584;2022-12-16T05:16:11;1.50;57.20
488;DHT22;16586;48.976;9.584;2022-12-16T05:18:56;1.60;57.50
488;DHT22;16586;48.976;9.584;2022-12-16T05:21:40;1.60;57.50
488;DHT22;16586;48.976;9.584;2022-12-16T05:24:36;1.60;57.10
488;DHT22;16586;48.976;9.584;2022-12-16T05:27:20;1.60;57.50
488;DHT22;16586;48.976;9.584;2022-12-16T05:30:07;1.60;57.60
488;DHT22;16586;48.976;9.584;2022-12-16T05:32:52;1.60;57.20
488;DHT22;16586;48.976;9.584;2022-12-16T05:35:35;1.60;56.80
488;DHT22;16586;48.976;9.584;2022-12-16T05:38:20;1.50;56.70
488;DHT22;16586;48.976;9.584;2022-12-16T05:41:04;1.60;56.80
488;DHT22;16586;48.976;9.584;2022-12-16T05:43:48;1.50;56.80
488;DHT22;16586;48.976;9.584;2022-12-16T05:46:33;1.50;56.80
488;DHT22;16586;48.976;9.584;2022-12-16T05:49:17;1.60;57.40
488;DHT22;16586;48.976;9.584;2022-12-16T05:52:01;1.50;57.10
488;DHT22;16586;48.976;9.584;2022-12-16T05:54:45;1.60;58.00
488;DHT22;16586;48.976;9.584;2022-12-16T05:57:29;1.70;56.60
488;DHT22;16586;48.976;9.584;2022-12-16T06:00:17;1.70;56.60
488;DHT22;16586;48.976;9.584;2022-12-16T06:02:59;1.70;56.80
488;DHT22;16586;48.976;9.584;2022-12-16T06:05:43;1.50;56.80
488;DHT22;16586;48.976;9.584;2022-12-16T06:08:27;1.70;56.60
488;DHT22;16586;48.976;9.584;2022-12-16T06:11:12;1.50;56.50
488;DHT22;16586;48.976;9.584;2022-12-16T06:14:07;1.50;56.80
488;DHT22;16586;48.976;9.584;2022-12-16T06:16:52;1.60;56.60
488;DHT22;16586;48.976;9.584;2022-12-16T06:19:37;1.50;56.60
488;DHT22;16586;48.976;9.584;2022-12-16T06:22:21;1.60;55.90
488;DHT22;16586;48.976;9.584;2022-12-16T06:25:06;1.30;55.80
488;DHT22;16586;48.976;9.584;2022-12-16T06:27:51;1.30;56.30
488;DHT22;16586;48.976;9.584;2022-12-16T06:30:36;1.10;56.50
488;DHT22;16586;48.976;9.584;2022-12-16T06:33:20;1.00;56.90
488;DHT22;16586;48.976;9.584;2022-12-16T06:36:07;1.00;57.50
488;DHT22;16586;48.976;9.584;2022-12-16T06:38:51;1.10;57.70
488;DHT22;16586;48.976;9.584;2022-12-16T06:41:35;1.10;55.90
488;DHT22;16586;48.976;9.584;2022-12-16T06:44:19;1.00;57.00
488;DHT22;16586;48.976;9.584;2022-12-16T06:47:03;1.10;55.70
488;DHT22;16586;48.976;9.584;2022-12-16T06:49:48;1.10;56.10
488;DHT22;16586;48.976;9.584;2022-12-16T06:52:34;1.10;56.00
488;DHT22;16586;48.976;9.584;2022-12-16T06:55:18;0.90;55.80
488;DHT22;16586;48.976;9.584;2022-12-16T06:58:02;1.10;55.90
488;DHT22;16586;48.976;9.584;2022-12-16T07:00:45;1.00;56.20
488;DHT22;16586;48.976;9.584;2022-12-16T07:03:30;0.90;56.70
488;DHT22;16586;48.976;9.584;2022-12-16T07:06:14;1.00;55.90
488;DHT22;16586;48.976;9.584;2022-12-16T07:09:00;1.10;55.90
488;DHT22;16586;48.976;9.584;2022-12-16T07:11:44;1.00;55.90
488;DHT22;16586;48.976;9.584;2022-12-16T07:14:40;2.70;57.60
488;DHT22;16586;48.976;9.584;2022-12-16T07:17:24;1.10;56.10
488;DHT22;16586;48.976;9.584;2022-12-16T07:20:10;1.20;55.30
488;DHT22;16586;48.976;9.584;2022-12-16T07:22:54;1.30;54.40
488;DHT22;16586;48.976;9.584;2022-12-16T07:25:40;1.30;54.00
488;DHT22;16586;48.976;9.584;2022-12-16T07:28:24;1.20;54.60
488;DHT22;16586;48.976;9.584;2022-12-16T07:31:10;1.20;54.70
488;DHT22;16586;48.976;9.584;2022-12-16T07:33:54;1.20;56.00
488;DHT22;16586;48.976;9.584;2022-12-16T07:36:38;1.20;54.40
488;DHT22;16586;48.976;9.584;2022-12-16T07:39:22;1.20;54.40
488;DHT22;16586;48.976;9.584;2022-12-16T07:42:08;1.10;54.80
488;DHT22;16586;48.976;9.584;2022-12-16T07:44:52;1.20;54.50
488;DHT22;16586;48.976;9.584;2022-12-16T07:47:37;1.30;55.00
488;DHT22;16586;48.976;9.584;2022-12-16T07:50:21;1.30;55.10
488;DHT22;16586;48.976;9.584;2022-12-16T07:53:05;1.40;55.40
488;DHT22;16586;48.976;9.584;2022-12-16T07:55:50;1.40;55.20
488;DHT22;16586;48.976;9.584;2022-12-16T07:58:35;1.50;55.50
488;DHT22;16586;48.976;9.584;2022-12-16T08:01:19;1.60;54.40
488;DHT22;16586;48.976;9.584;2022-12-16T08:04:03;1.50;54.30
488;DHT22;16586;48.976;9.584;2022-12-16T08:06:47;1.60;53.90
488;DHT22;16586;48.976;9.584;2022-12-16T08:09:31;1.70;53.80
488;DHT22;16586;48.976;9.584;2022-12-16T08:12:16;1.60;53.60
488;DHT22;16586;48.976;9.584;2022-12-16T08:15:01;3.70;55.40
488;DHT22;16586;48.976;9.584;2022-12-16T08:17:47;1.60;53.70
488;DHT22;16586;48.976;9.584;2022-12-16T08:20:32;1.70;53.60
488;DHT22;16586;48.976;9.584;2022-12-16T08:23:12;1.60;53.40
488;DHT22;16586;48.976;9.584;2022-12-16T08:25:59;1.70;53.80
488;DHT22;16586;48.976;9.584;2022-12-16T08:28:43;1.70;53.60
488;DHT22;16586;48.976;9.584;2022-12-16T08:31:28;1.80;53.50
488;DHT22;16586;48.976;9.584;2022-12-16T08:34:13;2.30;54.10
488;DHT22;16586;48.976;9.584;2022-12-16T08:36:57;1.80;53.70
488;DHT22;16586;48.976;9.584;2022-12-16T08:39:41;1.80;53.70
488;DHT22;16586;48.976;9.584;2022-12-16T08:42:28;1.80;53.80
488;DHT22;16586;48.976;9.584;2022-12-16T08:45:14;2.00;53.60
488;DHT22;16586;48.976;9.584;2022-12-16T08:48:03;2.00;52.80
488;DHT22;16586;48.976;9.584;2022-12-16T08:50:48;2.10;52.30
488;DHT22;16586;48.976;9.584;2022-12-16T08:53:32;2.00;51.00
488;DHT22;16586;48.976;9.584;2022-12-16T08:56:31;2.10;50.10
488;DHT22;16586;48.976;9.584;2022-12-16T08:59:15;2.00;50.60
488;DHT22;16586;48.976;9.584;2022-12-16T09:02:14;2.20;49.70
488;DHT22;16586;48.976;9.584;2022-12-16T09:04:59;2.10;49.30
488;DHT22;16586;48.976;9.584;2022-12-16T09:07:52;2.00;49.00
488;DHT22;16586;48.976;9.584;2022-12-16T09:10:41;2.00;49.60
488;DHT22;16586;48.976;9.584;2022-12-16T09:13:25;2.00;48.70
488;DHT22;16586;48.976;9.584;2022-12-16T09:16:09;2.00;49.60
488;DHT22;16586;48.976;9.584;2022-12-16T09:18:53;2.00;48.30
488;DHT22;16586;48.976;9.584;2022-12-16T09:21:39;2.00;49.40
488;DHT22;16586;48.976;9.584;2022-12-16T09:24:25;1.90;48.40
488;DHT22;16586;48.976;9.584;2022-12-16T09:27:09;1.90;49.30
488;DHT22;16586;48.976;9.584;2022-12-16T09:29:53;1.90;50.20
488;DHT22;16586;48.976;9.584;2022-12-16T09:32:40;2.00;48.90
488;DHT22;16586;48.976;9.584;2022-12-16T09:35:24;2.10;49.20
488;DHT22;16586;48.976;9.584;2022-12-16T09:38:10;2.10;49.30
488;DHT22;16586;48.976;9.584;2022-12-16T09:41:17;2.10;49.10
488;DHT22;16586;48.976;9.584;2022-12-16T09:44:06;2.50;48.50
488;DHT22;16586;48.976;9.584;2022-12-16T09:46:59;2.10;49.70
488;DHT22;16586;48.976;9.584;2022-12-16T09:49:47;3.30;50.20
488;DHT22;16586;48.976;9.584;2022-12-16T09:52:34;2.40;47.40
488;DHT22;16586;48.976;9.584;2022-12-16T09:55:29;2.30;47.00
488;DHT22;16586;48.976;9.584;2022-12-16T09:58:15;2.60;46.70
488;DHT22;16586;48.976;9.584;2022-12-16T10:01:03;2.20;47.90
488;DHT22;16586;48.976;9.584;2022-12-16T10:03:50;2.10;47.00
488;DHT22;16586;48.976;9.584;2022-12-16T10:06:39;2.20;48.00
488;DHT22;16586;48.976;9.584;2022-12-16T10:09:33;2.40;48.40
488;DHT22;16586;48.976;9.584;2022-12-16T10:12:28;2.50;46.80
488;DHT22;16586;48.976;9.584;2022-12-16T10:15:25;2.60;46.10
488;DHT22;16586;48.976;9.584;2022-12-16T10:18:21;2.50;46.10
488;DHT22;16586;48.976;9.584;2022-12-16T10:21:10;2.50;46.70
488;DHT22;16586;48.976;9.584;2022-12-16T10:24:03;2.50;46.80
488;DHT22;16586;48.976;9.584;2022-12-16T10:26:54;2.40;45.50
488;DHT22;16586;48.976;9.584;2022-12-16T10:29:42;2.40;45.90
488;DHT22;16586;48.976;9.584;2022-12-16T10:32:30;2.40;46.30
488;DHT22;16586;48.976;9.584;2022-12-16T10:35:19;2.50;45.70
488;DHT22;16586;48.976;9.584;2022-12-16T10:38:13;2.40;45.50
488;DHT22;16586;48.976;9.584;2022-12-16T10:41:00;2.30;46.60
488;DHT22;16586;48.976;9.584;2022-12-16T10:43:46;2.40;45.90
488;DHT22;16586;48.976;9.584;2022-12-16T10:46:35;2.40;46.50
488;DHT22;16586;48.976;9.584;2022-12-16T10:49:20;2.40;46.50
488;DHT22;16586;48.976;9.584;2022-12-16T10:52:05;2.40;45.60
488;DHT22;16586;48.976;9.584;2022-12-16T10:54:56;2.50;45.50
488;DHT22;16586;48.976;9.584;2022-12-16T10:57:50;2.60;45.60
488;DHT22;16586;48.976;9.584;2022-12-16T11:00:43;2.80;45.80
488;DHT22;16586;48.976;9.584;2022-12-16T11:03:29;2.80;46.40
488;DHT22;16586;48.976;9.584;2022-12-16T11:06:16;3.60;46.60
488;DHT22;16586;48.976;9.584;2022-12-16T11:09:29;2.90;44.30
488;DHT22;16586;48.976;9.584;2022-12-16T11:12:20;2.90;46.00
488;DHT22;16586;48.976;9.584;2022-12-16T11:15:18;2.90;45.90
488;DHT22;16586;48.976;9.584;2022-12-16T11:18:07;2.70;45.00
488;DHT22;16586;48.976;9.584;2022-12-16T11:21:06;2.70;44.70
488;DHT22;16586;48.976;9.584;2022-12-16T11:24:05;2.70;45.20
488;DHT22;16586;48.976;9.584;2022-12-16T11:26:54;2.60;44.90
488;DHT22;16586;48.976;9.584;2022-12-16T11:29:57;2.70;45.20
488;DHT22;16586;48.976;9.584;2022-12-16T11:32:45;2.80;45.40
488;DHT22;16586;48.976;9.584;2022-12-16T11:35:32;2.80;45.00
488;DHT22;16586;48.976;9.584;2022-12-16T11:38:25;2.90;44.20
488;DHT22;16586;48.976;9.584;2022-12-16T11:41:18;2.90;44.50
488;DHT22;16586;48.976;9.584;2022-12-16T11:44:05;3.00;45.20
488;DHT22;16586;48.976;9.584;2022-12-16T11:46:51;2.90;44.80
488;DHT22;16586;48.976;9.584;2022-12-16T11:49:36;3.10;45.40
488;DHT22;16586;48.976;9.584;2022-12-16T11:52:20;2.90;44.70
488;DHT22;16586;48.976;9.584;2022-12-16T11:55:13;3.00;44.90
488;DHT22;16586;48.976;9.584;2022-12-16T11:58:03;3.50;45.50
488;DHT22;16586;48.976;9.584;2022-12-16T12:00:56;3.00;43.20
488;DHT22;16586;48.976;9.584;2022-12-16T12:03:48;2.90;43.90
488;DHT22;16586;48.976;9.584;2022-12-16T12:06:41;3.20;44.60
488;DHT22;16586;48.976;9.584;2022-12-16T12:09:33;3.00;44.80
488;DHT22;16586;48.976;9.584;2022-12-16T12:12:31;3.00;44.20
488;DHT22;16586;48.976;9.584;2022-12-16T12:15:20;2.90;44.50
488;DHT22;16586;48.976;9.584;2022-12-16T12:18:12;3.00;43.70
488;DHT22;16586;48.976;9.584;2022-12-16T12:21:04;2.90;43.50
488;DHT22;16586;48.976;9.584;2022-12-16T12:23:59;2.70;42.90
488;DHT22;16586;48.976;9.584;2022-12-16T12:26:52;2.50;44.30
488;DHT22;16586;48.976;9.584;2022-12-16T12:29:50;2.60;45.60
488;DHT22;16586;48.976;9.584;2022-12-16T12:32:45;2.50;45.50
488;DHT22;16586;48.976;9.584;2022-12-16T12:35:40;2.60;44.30
488;DHT22;16586;48.976;9.584;2022-12-16T12:38:30;2.70;45.80
488;DHT22;16586;48.976;9.584;2022-12-16T12:41:18;2.50;45.00
488;DHT22;16586;48.976;9.584;2022-12-16T12:44:12;2.50;44.60
488;DHT22;16586;48.976;9.584;2022-12-16T12:47:02;4.00;46.10
488;DHT22;16586;48.976;9.584;2022-12-16T12:49:53;2.40;45.10
488;DHT22;16586;48.976;9.584;2022-12-16T12:52:56;2.50;45.50
488;DHT22;16586;48.976;9.584;2022-12-16T12:55:44;2.50;45.60
488;DHT22;16586;48.976;9.584;2022-12-16T12:58:34;2.50;46.60
488;DHT22;16586;48.976;9.584;2022-12-16T13:01:20;2.40;46.20
488;DHT22;16586;48.976;9.584;2022-12-16T13:04:11;2.50;46.00
488;DHT22;16586;48.976;9.584;2022-12-16T13:06:58;2.50;45.40
488;DHT22;16586;48.976;9.584;2022-12-16T13:09:44;2.40;44.80
488;DHT22;16586;48.976;9.584;2022-12-16T13:12:29;2.40;45.80
488;DHT22;16586;48.976;9.584;2022-12-16T13:15:19;2.30;45.80
488;DHT22;16586;48.976;9.584;2022-12-16T13:18:31;2.40;46.20
488;DHT22;16586;48.976;9.584;2022-12-16T13:21:46;2.50;46.20
488;DHT22;16586;48.976;9.584;2022-12-16T13:24:43;2.70;43.90
488;DHT22;16586;48.976;9.584;2022-12-16T13:27:43;2.50;43.70
488;DHT22;16586;48.976;9.584;2022-12-16T13:30:31;2.50;43.50
488;DHT22;16586;48.976;9.584;2022-12-16T13:33:27;2.40;44.80
488;DHT22;16586;48.976;9.584;2022-12-16T13:36:14;2.40;44.30
488;DHT22;16586;48.976;9.584;2022-12-16T13:39:07;2.30;44.10
488;DHT22;16586;48.976;9.584;2022-12-16T13:42:02;2.40;45.50
488;DHT22;16586;48.976;9.584;2022-12-16T13:44:58;2.60;44.40
488;DHT22;16586;48.976;9.584;2022-12-16T13:48:01;2.30;43.70
488;DHT22;16586;48.976;9.584;2022-12-16T13:50:48;2.50;44.70
488;DHT22;16586;48.976;9.584;2022-12-16T13:53:36;2.50;44.70
488;DHT22;16586;48.976;9.584;2022-12-16T13:56:26;2.70;43.10
488;DHT22;16586;48.976;9.584;2022-12-16T13:59:16;2.70;42.90
488;DHT22;16586;48.976;9.584;2022-12-16T14:02:13;2.70;42.40
488;DHT22;16586;48.976;9.584;2022-12-16T14:05:00;2.60;42.80
488;DHT22;16586;48.976;9.584;2022-12-16T14:07:44;2.50;43.80
488;DHT22;16586;48.976;9.584;2022-12-16T14:10:30;2.60;43.50
488;DHT22;16586;48.976;9.584;2022-12-16T14:13:20;2.70;43.10
488;DHT22;16586;48.976;9.584;2022-12-16T14:16:12;2.60;42.80
488;DHT22;16586;48.976;9.584;2022-12-16T14:19:08;2.60;42.40
488;DHT22;16586;48.976;9.584;2022-12-16T14:22:01;2.50;42.30
488;DHT22;16586;48.976;9.584;2022-12-16T14:24:48;2.50;43.20
488;DHT22;16586;48.976;9.584;2022-12-16T14:27:33;2.40;42.50
488;DHT22;16586;48.976;9.584;2022-12-16T14:30:21;2.30;43.70
488;DHT22;16586;48.976;9.584;2022-12-16T14:40:18;2.40;43.60
488;DHT22;16586;48.976;9.584;2022-12-16T14:42:59;2.00;43.70
488;DHT22;16586;48.976;9.584;2022-12-16T14:45:49;2.10;45.20
488;DHT22;16586;48.976;9.584;2022-12-16T14:48:35;2.10;43.90
488;DHT22;16586;48.976;9.584;2022-12-16T14:51:26;2.20;45.50
488;DHT22;16586;48.976;9.584;2022-12-16T14:54:22;2.20;43.00
488;DHT22;16586;48.976;9.584;2022-12-16T14:57:11;2.10;43.10
488;DHT22;16586;48.976;9.584;2022-12-16T15:00:11;2.00;43.20
488;DHT22;16586;48.976;9.584;2022-12-16T15:03:01;2.20;43.90
488;DHT22;16586;48.976;9.584;2022-12-16T15:05:48;2.10;43.50
488;DHT22;16586;48.976;9.584;2022-12-16T15:08:36;2.20;45.30
488;DHT22;16586;48.976;9.584;2022-12-16T15:11:23;2.00;44.50
488;DHT22;16586;48.976;9.584;2022-12-16T15:14:11;2.10;45.20
488;DHT22;16586;48.976;9.584;2022-12-16T15:17:02;2.20;44.90
488;DHT22;16586;48.976;9.584;2022-12-16T15:19:50;3.30;46.10
488;DHT22;16586;48.976;9.584;2022-12-16T15:22:35;2.00;44.20
488;DHT22;16586;48.976;9.584;2022-12-16T15:25:21;2.00;45.30
488;DHT22;16586;48.976;9.584;2022-12-16T15:28:22;2.00;43.60
488;DHT22;16586;48.976;9.584;2022-12-16T15:31:13;2.00;44.50
488;DHT22;16586;48.976;9.584;2022-12-16T15:34:15;2.00;44.10
488;DHT22;16586;48.976;9.584;2022-12-16T15:37:24;2.10;44.80
488;DHT22;16586;48.976;9.584;2022-12-16T15:40:21;2.00;43.20
488;DHT22;16586;48.976;9.584;2022-12-16T15:43:19;1.90;44.00
488;DHT22;16586;48.976;9.584;2022-12-16T15:46:17;1.80;44.30
488;DHT22;16586;48.976;9.584;2022-12-16T15:49:02;1.90;45.10
488;DHT22;16586;48.976;9.584;2022-12-16T15:51:48;1.90;44.40
488;DHT22;16586;48.976;9.584;2022-12-16T15:54:48;1.90;44.40
488;DHT22;16586;48.976;9.584;2022-12-16T15:57:35;2.20;44.30
488;DHT22;16586;48.976;9.584;2022-12-16T16:00:22;2.00;45.10
488;DHT22;16586;48.976;9.584;2022-12-16T16:03:21;1.90;45.20
488;DHT22;16586;48.976;9.584;2022-12-16T16:06:47;1.80;45.20
488;DHT22;16586;48.976;9.584;2022-12-16T16:16:22;2.20;46.40
488;DHT22;16586;48.976;9.584;2022-12-16T16:19:10;2.10;47.00
488;DHT22;16586;48.976;9.584;2022-12-16T16:21:55;2.10;47.00
488;DHT22;16586;48.976;9.584;2022-12-16T16:24:39;2.10;46.70
488;DHT22;16586;48.976;9.584;2022-12-16T16:27:25;2.10;46.70
488;DHT22;16586;48.976;9.584;2022-12-16T16:30:12;2.10;46.40
488;DHT22;16586;48.976;9.584;2022-12-16T16:32:57;2.00;45.60
488;DHT22;16586;48.976;9.584;2022-12-16T16:35:41;2.30;45.40
488;DHT22;16586;48.976;9.584;2022-12-16T16:38:25;1.90;45.30
488;DHT22;16586;48.976;9.584;2022-12-16T16:41:13;1.80;45.90
488;DHT22;16586;48.976;9.584;2022-12-16T16:43:58;1.90;46.30
488;DHT22;16586;48.976;9.584;2022-12-16T16:46:45;2.00;45.60
488;DHT22;16586;48.976;9.584;2022-12-16T16:49:31;2.20;46.30
488;DHT22;16586;48.976;9.584;2022-12-16T16:52:17;2.10;45.40
488;DHT22;16586;48.976;9.584;2022-12-16T16:55:02;2.30;45.50
488;DHT22;16586;48.976;9.584;2022-12-16T16:57:46;2.20;45.40
488;DHT22;16586;48.976;9.584;2022-12-16T17:00:30;2.10;45.80
488;DHT22;16586;48.976;9.584;2022-12-16T17:03:23;3.40;47.70
488;DHT22;16586;48.976;9.584;2022-12-16T17:06:08;2.20;45.60
488;DHT22;16586;48.976;9.584;2022-12-16T17:08:52;2.10;46.10
488;DHT22;16586;48.976;9.584;2022-12-16T17:11:37;2.10;46.40
488;DHT22;16586;48.976;9.584;2022-12-16T17:14:22;3.50;48.70
488;DHT22;16586;48.976;9.584;2022-12-16T17:17:06;3.50;48.20
488;DHT22;16586;48.976;9.584;2022-12-16T17:19:53;1.90;46.80
488;DHT22;16586;48.976;9.584;2022-12-16T17:22:37;1.90;47.30
488;DHT22;16586;48.976;9.584;2022-12-16T17:25:21;1.80;47.30
488;DHT22;16586;48.976;9.584;2022-12-16T17:28:04;1.80;47.40
488;DHT22;16586;48.976;9.584;2022-12-16T17:30:49;1.80;47.90
488;DHT22;16586;48.976;9.584;2022-12-16T17:33:33;1.70;47.40
488;DHT22;16586;48.976;9.584;2022-12-16T17:36:19;1.70;48.20
488;DHT22;16586;48.976;9.584;2022-12-16T17:39:04;1.70;49.70
488;DHT22;16586;48.976;9.584;2022-12-16T17:41:49;1.70;48.60
488;DHT22;16586;48.976;9.584;2022-12-16T17:44:33;1.70;48.90
488;DHT22;16586;48.976;9.584;2022-12-16T17:47:17;1.80;49.50
488;DHT22;16586;48.976;9.584;2022-12-16T17:50:03;1.80;49.50
488;DHT22;16586;48.976;9.584;2022-12-16T17:52:52;1.80;49.30
488;DHT22;16586;48.976;9.584;2022-12-16T17:55:36;1.70;48.90
488;DHT22;16586;48.976;9.584;2022-12-16T17:58:28;1.70;48.70
488;DHT22;16586;48.976;9.584;2022-12-16T18:01:12;1.60;48.80
488;DHT22;16586;48.976;9.584;2022-12-16T18:03:56;1.70;49.20
488;DHT22;16586;48.976;9.584;2022-12-16T18:06:40;1.70;49.30
488;DHT22;16586;48.976;9.584;2022-12-16T18:09:26;2.10;50.00
488;DHT22;16586;48.976;9.584;2022-12-16T18:12:10;2.00;48.80
488;DHT22;16586;48.976;9.584;2022-12-16T18:14:54;1.80;49.00
488;DHT22;16586;48.976;9.584;2022-12-16T18:17:38;1.70;48.80
488;DHT22;16586;48.976;9.584;2022-12-16T18:20:22;1.70;48.60